Time;durP1;ratioP1;P1;durP2;ratioP2;P2;SDS_P1;SDS_P2;PMS_P1;PMS_P2;Temp;Humidity;BMP_temperature;BMP_pressure;BME280_temperature;BME280_humidity;BME280_pressure;Samples;Min_cycle;Max_cycle;Signal;HPM_P1;HPM_P2
2022/11/27 00:02:16;;;;;;;;;;;;;;;19.49;49.94;101370.47;7254191;19;153423;-55
2022/11/27 00:04:43;;;;;;;;;;;;;;;19.47;49.96;101369.94;7258125;19;155795;-56
2022/11/27 00:07:09;;;;;;;;;;;;;;;19.44;50.07;101364.09;7254725;19;153931;-55
2022/11/27 00:09:36;;;;;;;;;;;;;;;19.43;49.93;101352.03;7253021;19;152973;-56
2022/11/27 00:12:04;;;;;;;;;;;;;;;19.44;50.14;101361.28;7256353;19;153914;-55
2022/11/27 00:14:31;;;;;;;;;;;;;;;19.43;50.04;101353.97;7260648;19;153989;-55
2022/11/27 00:16:58;;;;;;;;;;;;;;;19.40;49.97;101343.31;7256326;19;154336;-56
2022/11/27 00:19:25;;;;;;;;;;;;;;;19.38;49.85;101348.41;7251300;19;153381;-56
2022/11/27 00:21:52;;;;;;;;;;;;;;;19.39;50.30;101355.69;7255683;19;153623;-56
2022/11/27 00:24:18;;;;;;;;;;;;;;;19.36;50.03;101342.22;7254509;19;154227;-55
2022/11/27 00:26:45;;;;;;;;;;;;;;;19.33;50.15;101335.25;7255133;19;155182;-56
2022/11/27 00:29:12;;;;;;;;;;;;;;;19.34;50.30;101331.34;7257513;19;154138;-56
2022/11/27 00:31:39;;;;;;;;;;;;;;;19.29;50.09;101330.53;7255726;19;153563;-56
2022/11/27 00:34:07;;;;;;;;;;;;;;;19.28;50.36;101324.09;7254956;19;156088;-56
2022/11/27 00:36:34;;;;;;;;;;;;;;;19.26;50.44;101329.13;7264604;19;154034;-56
2022/11/27 00:39:02;;;;;;;;;;;;;;;19.28;50.53;101326.88;7252623;19;153803;-55
2022/11/27 00:41:29;;;;;;;;;;;;;;;19.24;50.48;101323.00;7253020;19;153676;-56
2022/11/27 00:43:56;;;;;;;;;;;;;;;19.22;50.72;101324.41;7256392;19;153810;-56
2022/11/27 00:46:24;;;;;;;;;;;;;;;19.22;50.77;101316.00;7252852;19;154981;-56
2022/11/27 00:48:54;;;;;;;;;;;;;;;19.21;50.40;101322.75;7255763;19;154182;-56
2022/11/27 00:51:22;;;;;;;;;;;;;;;19.19;50.58;101317.41;7253238;19;154148;-56
2022/11/27 00:53:49;;;;;;;;;;;;;;;19.17;50.74;101311.25;7256173;19;153799;-56
2022/11/27 00:56:16;;;;;;;;;;;;;;;19.16;50.36;101315.22;7254328;19;153627;-55
2022/11/27 00:58:43;;;;;;;;;;;;;;;19.14;50.87;101314.66;7260574;19;154451;-55
2022/11/27 01:01:20;;;;;;;;;;;;;;;19.17;50.59;101307.66;7254042;19;154596;-56
2022/11/27 01:03:47;;;;;;;;;;;;;;;19.10;50.71;101294.78;7255554;19;152810;-57
2022/11/27 01:06:15;;;;;;;;;;;;;;;19.10;50.64;101300.41;7252771;19;153627;-55
2022/11/27 01:08:41;;;;;;;;;;;;;;;19.09;50.91;101292.28;7251283;19;155197;-56
2022/11/27 01:11:17;;;;;;;;;;;;;;;19.09;50.87;101286.66;7248209;19;152930;-56
2022/11/27 01:13:44;;;;;;;;;;;;;;;19.09;50.96;101281.91;7251595;19;153586;-56
2022/11/27 01:16:13;;;;;;;;;;;;;;;19.09;50.96;101287.50;7255204;19;153252;-56
2022/11/27 01:18:41;;;;;;;;;;;;;;;19.12;51.17;101288.06;7251471;19;154634;-55
2022/11/27 01:21:08;;;;;;;;;;;;;;;19.14;51.31;101294.19;7260875;19;155508;-55
2022/11/27 01:23:35;;;;;;;;;;;;;;;19.19;51.67;101282.97;7253425;19;154925;-55
2022/11/27 01:26:04;;;;;;;;;;;;;;;19.22;51.36;101287.97;7251754;19;153834;-56
2022/11/27 01:28:31;;;;;;;;;;;;;;;19.19;51.95;101275.41;7250141;19;153070;-55
2022/11/27 01:31:02;;;;;;;;;;;;;;;19.23;51.96;101279.28;7253114;19;153815;-55
2022/11/27 01:33:29;;;;;;;;;;;;;;;19.25;51.91;101268.66;7250738;19;154105;-56
2022/11/27 01:35:56;;;;;;;;;;;;;;;19.24;51.79;101263.31;7252412;19;153933;-56
2022/11/27 01:38:24;;;;;;;;;;;;;;;19.20;51.64;101265.03;7254283;19;153976;-56
2022/11/27 01:41:00;;;;;;;;;;;;;;;19.18;51.63;101261.69;7259079;19;154522;-56
2022/11/27 01:43:35;;;;;;;;;;;;;;;19.22;51.46;101251.56;7253586;19;154572;-53
2022/11/27 01:46:02;;;;;;;;;;;;;;;19.24;51.65;101261.38;7247673;19;154887;-57
2022/11/27 01:48:29;;;;;;;;;;;;;;;19.24;51.78;101246.50;7247543;19;154154;-57
2022/11/27 01:50:56;;;;;;;;;;;;;;;19.24;52.01;101243.72;7252832;19;153592;-58
2022/11/27 01:53:22;;;;;;;;;;;;;;;19.21;51.88;101253.56;7247451;19;154582;-57
2022/11/27 01:55:53;;;;;;;;;;;;;;;19.22;52.13;101245.97;7248249;19;154564;-57
2022/11/27 01:58:23;;;;;;;;;;;;;;;19.19;51.96;101249.34;7252923;19;155638;-57
2022/11/27 02:00:49;;;;;;;;;;;;;;;19.19;52.28;101250.19;7259277;19;154196;-57
2022/11/27 02:03:16;;;;;;;;;;;;;;;19.16;52.16;101253.59;7268595;19;152553;-58
2022/11/27 02:05:43;;;;;;;;;;;;;;;19.17;52.58;101249.63;7259766;19;154382;-57
2022/11/27 02:08:12;;;;;;;;;;;;;;;19.17;52.06;101249.63;7257684;19;153591;-57
2022/11/27 02:10:39;;;;;;;;;;;;;;;19.16;52.08;101245.19;7252405;19;152026;-57
2022/11/27 02:13:10;;;;;;;;;;;;;;;19.17;52.68;101249.63;7257896;19;153596;-58
2022/11/27 02:15:42;;;;;;;;;;;;;;;19.17;52.17;101246.03;7255743;19;154754;-57
2022/11/27 02:18:19;;;;;;;;;;;;;;;19.16;52.72;101249.94;7257067;19;153821;-57
2022/11/27 02:20:55;;;;;;;;;;;;;;;19.15;52.48;101240.72;7257958;19;154988;-57
2022/11/27 02:23:31;;;;;;;;;;;;;;;19.14;52.79;101243.78;7260693;19;151897;-57
2022/11/27 02:26:01;;;;;;;;;;;;;;;19.14;52.44;101243.78;7262790;19;154044;-57
2022/11/27 02:28:29;;;;;;;;;;;;;;;19.13;52.87;101233.72;7260074;19;153275;-57
2022/11/27 02:31:00;;;;;;;;;;;;;;;19.11;52.92;101245.22;7255295;19;153073;-57
2022/11/27 02:33:31;;;;;;;;;;;;;;;19.12;52.91;101237.66;7261633;19;153846;-57
2022/11/27 02:36:04;;;;;;;;;;;;;;;19.12;52.97;101234.84;7258762;19;152519;-57
2022/11/27 02:38:35;;;;;;;;;;;;;;;19.12;53.33;101237.66;7259990;19;153658;-57
2022/11/27 02:41:12;;;;;;;;;;;;;;;19.10;53.67;101238.78;7254367;19;153521;-57
2022/11/27 02:43:41;;;;;;;;;;;;;;;19.10;53.27;101235.97;7259017;19;153968;-58
2022/11/27 02:46:09;;;;;;;;;;;;;;;19.10;53.33;101235.13;7258927;19;155790;-58
2022/11/27 02:48:40;;;;;;;;;;;;;;;19.09;53.55;101253.06;7263466;19;154024;-58
2022/11/27 02:51:09;;;;;;;;;;;;;;;19.08;53.94;101241.03;7256521;19;153389;-58
2022/11/27 02:53:38;;;;;;;;;;;;;;;19.08;54.27;101228.97;7257716;19;153709;-57
2022/11/27 02:56:07;;;;;;;;;;;;;;;19.10;54.08;101224.78;7255914;19;154149;-57
2022/11/27 02:58:35;;;;;;;;;;;;;;;19.09;54.02;101219.47;7258125;19;153594;-57
2022/11/27 03:01:04;;;;;;;;;;;;;;;19.09;54.11;101223.09;7254038;19;153994;-57
2022/11/27 03:03:33;;;;;;;;;;;;;;;19.10;54.19;101215.53;7259988;19;153090;-57
2022/11/27 03:06:02;;;;;;;;;;;;;;;19.08;54.65;101217.78;7259446;19;154946;-57
2022/11/27 03:08:32;;;;;;;;;;;;;;;19.09;54.41;101219.47;7258758;19;153655;-57
2022/11/27 03:11:04;;;;;;;;;;;;;;;19.09;54.41;101222.25;7259299;19;153743;-57
2022/11/27 03:13:37;;;;;;;;;;;;;;;19.07;54.19;101216.97;7250792;19;154739;-57
2022/11/27 03:16:11;;;;;;;;;;;;;;;19.07;54.48;101216.97;7256043;19;154568;-57
2022/11/27 03:18:43;;;;;;;;;;;;;;;19.07;54.60;101214.16;7258301;19;153746;-57
2022/11/27 03:21:19;;;;;;;;;;;;;;;19.08;54.49;101212.19;7255063;19;154100;-57
2022/11/27 03:23:45;;;;;;;;;;;;;;;19.07;55.06;101205.78;7259383;19;153851;-57
2022/11/27 03:26:12;;;;;;;;;;;;;;;19.04;55.30;101203.53;7255360;19;154305;-57
2022/11/27 03:28:41;;;;;;;;;;;;;;;19.07;55.13;101204.94;7254604;19;155397;-57
2022/11/27 03:31:08;;;;;;;;;;;;;;;19.06;55.04;101197.66;7251968;19;154161;-57
2022/11/27 03:33:35;;;;;;;;;;;;;;;19.07;54.79;101202.13;7246904;19;155635;-57
2022/11/27 03:36:08;;;;;;;;;;;;;;;19.06;55.28;101204.09;7254338;19;153767;-57
2022/11/27 03:38:35;;;;;;;;;;;;;;;19.06;55.51;101206.06;7260097;19;155269;-57
2022/11/27 03:41:07;;;;;;;;;;;;;;;19.04;55.10;101203.53;7252644;19;154395;-57
2022/11/27 03:43:38;;;;;;;;;;;;;;;19.04;55.39;101200.72;7241127;19;154490;-57
2022/11/27 03:46:08;;;;;;;;;;;;;;;19.02;55.59;101191.81;7248603;19;153611;-57
2022/11/27 03:48:40;;;;;;;;;;;;;;;19.03;55.66;101192.66;7253638;19;153242;-57
2022/11/27 03:51:08;;;;;;;;;;;;;;;19.03;55.27;101189.84;7252360;19;153584;-58
2022/11/27 03:53:44;;;;;;;;;;;;;;;19.03;55.48;101187.03;7253442;19;154458;-58
2022/11/27 03:56:14;;;;;;;;;;;;;;;19.00;55.81;101188.44;7253375;19;153591;-58
2022/11/27 03:58:45;;;;;;;;;;;;;;;19.01;55.59;101192.94;7252499;19;153987;-57
2022/11/27 04:01:15;;;;;;;;;;;;;;;19.01;56.00;101194.88;7252322;19;156152;-57
2022/11/27 04:03:42;;;;;;;;;;;;;;;19.01;55.97;101195.72;7239097;19;154487;-57
2022/11/27 04:06:10;;;;;;;;;;;;;;;19.00;55.66;101196.00;7249850;19;154651;-57
2022/11/27 04:08:37;;;;;;;;;;;;;;;19.01;55.81;101189.28;7256329;19;153168;-57
2022/11/27 04:11:04;;;;;;;;;;;;;;;19.01;56.05;101192.94;7250139;19;153876;-57
2022/11/27 04:13:31;;;;;;;;;;;;;;;18.99;56.16;101186.75;7245687;19;154307;-57
2022/11/27 04:16:00;;;;;;;;;;;;;;;18.99;56.04;101189.56;7255856;19;154850;-57
2022/11/27 04:18:27;;;;;;;;;;;;;;;19.00;56.29;101190.41;7256426;19;154218;-58
2022/11/27 04:20:54;;;;;;;;;;;;;;;18.98;56.14;101196.31;7252128;19;154050;-58
2022/11/27 04:23:20;;;;;;;;;;;;;;;18.99;56.21;101188.72;7256110;19;153735;-57
2022/11/27 04:25:47;;;;;;;;;;;;;;;18.99;56.01;101186.75;7255447;19;153886;-58
2022/11/27 04:28:16;;;;;;;;;;;;;;;18.96;56.83;101195.75;7253505;19;154834;-57
2022/11/27 04:30:43;;;;;;;;;;;;;;;18.97;56.13;101191.84;7250638;19;153808;-57
2022/11/27 04:33:10;;;;;;;;;;;;;;;18.97;56.57;101194.63;7256159;19;153980;-57
2022/11/27 04:35:37;;;;;;;;;;;;;;;18.97;56.64;101191.84;7255411;19;154153;-57
2022/11/27 04:38:03;;;;;;;;;;;;;;;18.96;56.42;101192.97;7263794;19;153628;-57
2022/11/27 04:40:30;;;;;;;;;;;;;;;18.97;56.56;101191.00;7254620;19;153589;-58
2022/11/27 04:42:57;;;;;;;;;;;;;;;18.97;56.74;101194.63;7255220;19;153694;-57
2022/11/27 04:45:24;;;;;;;;;;;;;;;18.97;56.56;101191.00;7252052;19;152861;-57
2022/11/27 04:47:51;;;;;;;;;;;;;;;18.96;57.00;101195.75;7254227;19;153630;-57
2022/11/27 04:50:17;;;;;;;;;;;;;;;18.97;56.75;101196.59;7254323;19;152277;-58
2022/11/27 04:52:44;;;;;;;;;;;;;;;18.98;56.65;101207.53;7255342;19;154714;-57
2022/11/27 04:55:11;;;;;;;;;;;;;;;18.95;56.70;101196.88;7256644;19;153813;-57
2022/11/27 04:57:38;;;;;;;;;;;;;;;18.95;56.97;101196.88;7253800;19;153033;-57
2022/11/27 05:00:05;;;;;;;;;;;;;;;18.94;56.61;101192.41;7257162;19;153860;-57
2022/11/27 05:02:32;;;;;;;;;;;;;;;18.96;57.21;101197.72;7253680;19;152207;-57
2022/11/27 05:04:59;;;;;;;;;;;;;;;18.96;56.85;101198.56;7256305;19;154756;-56
2022/11/27 05:07:25;;;;;;;;;;;;;;;18.97;56.99;101203.03;7252642;19;155281;-57
2022/11/27 05:09:52;;;;;;;;;;;;;;;18.94;57.08;101186.81;7251212;19;153603;-57
2022/11/27 05:12:19;;;;;;;;;;;;;;;18.95;56.83;101185.69;7254413;19;154338;-57
2022/11/27 05:14:46;;;;;;;;;;;;;;;18.95;56.72;101188.47;7252173;19;154581;-58
2022/11/27 05:17:12;;;;;;;;;;;;;;;18.93;56.99;101195.53;7254228;19;153987;-57
2022/11/27 05:19:39;;;;;;;;;;;;;;;18.93;57.25;101190.75;7255406;19;154817;-57
2022/11/27 05:22:06;;;;;;;;;;;;;;;18.94;57.16;101191.59;7259678;19;153684;-57
2022/11/27 05:24:33;;;;;;;;;;;;;;;18.94;57.06;101186.00;7255700;19;154492;-57
2022/11/27 05:26:59;;;;;;;;;;;;;;;18.95;57.28;101184.84;7254346;19;153454;-57
2022/11/27 05:29:26;;;;;;;;;;;;;;;18.93;57.21;101179.56;7253667;19;153542;-57
2022/11/27 05:31:53;;;;;;;;;;;;;;;18.93;57.08;101171.16;7254082;19;154780;-57
2022/11/27 05:34:20;;;;;;;;;;;;;;;18.91;56.85;101165.00;7251126;19;154947;-57
2022/11/27 05:36:47;;;;;;;;;;;;;;;18.92;57.14;101172.28;7254976;19;152687;-57
2022/11/27 05:39:14;;;;;;;;;;;;;;;18.92;57.04;101166.69;7251513;19;154405;-57
2022/11/27 05:41:42;;;;;;;;;;;;;;;18.92;57.45;101163.88;7250562;19;152644;-57
2022/11/27 05:44:10;;;;;;;;;;;;;;;18.91;57.39;101164.16;7255447;19;153613;-57
2022/11/27 05:46:37;;;;;;;;;;;;;;;18.92;57.06;101175.06;7252226;19;152772;-57
2022/11/27 05:49:05;;;;;;;;;;;;;;;18.92;57.23;101169.47;7252575;19;154913;-57
2022/11/27 05:51:31;;;;;;;;;;;;;;;18.90;57.58;101166.13;7253346;19;154221;-57
2022/11/27 05:53:58;;;;;;;;;;;;;;;18.89;57.68;101170.06;7251266;19;153856;-57
2022/11/27 05:56:25;;;;;;;;;;;;;;;18.90;57.74;101163.31;7253104;19;153595;-57
2022/11/27 05:58:52;;;;;;;;;;;;;;;18.89;57.87;101170.06;7251141;19;152357;-57
2022/11/27 06:01:18;;;;;;;;;;;;;;;18.91;57.38;101173.41;7254702;19;154637;-56
2022/11/27 06:03:45;;;;;;;;;;;;;;;18.91;57.32;101172.56;7258141;19;154726;-58
2022/11/27 06:06:13;;;;;;;;;;;;;;;18.92;57.54;101177.03;7251679;19;154938;-58
2022/11/27 06:08:40;;;;;;;;;;;;;;;18.92;57.50;101174.25;7253115;19;154866;-57
2022/11/27 06:11:08;;;;;;;;;;;;;;;18.92;57.56;101175.06;7250707;19;152574;-57
2022/11/27 06:13:35;;;;;;;;;;;;;;;18.92;57.87;101179.84;7249149;19;154324;-57
2022/11/27 06:16:04;;;;;;;;;;;;;;;18.90;58.21;101179.28;7251460;19;154317;-57
2022/11/27 06:18:31;;;;;;;;;;;;;;;18.90;57.73;101180.13;7252463;19;153471;-57
2022/11/27 06:20:58;;;;;;;;;;;;;;;18.91;58.20;101173.41;7250076;19;153292;-57
2022/11/27 06:23:25;;;;;;;;;;;;;;;18.92;58.04;101183.47;7252708;19;153189;-57
2022/11/27 06:25:51;;;;;;;;;;;;;;;18.92;57.79;101180.69;7259463;19;154072;-57
2022/11/27 06:28:19;;;;;;;;;;;;;;;18.92;58.02;101191.03;7248859;19;154118;-57
2022/11/27 06:30:46;;;;;;;;;;;;;;;18.90;58.07;101188.53;7250291;19;153388;-58
2022/11/27 06:33:13;;;;;;;;;;;;;;;18.91;58.17;101194.97;7248167;19;153548;-58
2022/11/27 06:35:40;;;;;;;;;;;;;;;18.93;57.85;101189.91;7252660;19;154165;-58
2022/11/27 06:38:08;;;;;;;;;;;;;;;18.90;57.99;101182.91;7251599;19;153658;-57
2022/11/27 06:40:39;;;;;;;;;;;;;;;18.89;58.44;101181.28;7251544;19;153586;-57
2022/11/27 06:43:08;;;;;;;;;;;;;;;18.89;58.21;101186.03;7250065;19;154763;-57
2022/11/27 06:45:35;;;;;;;;;;;;;;;18.89;58.17;101191.63;7254383;19;154421;-57
2022/11/27 06:48:02;;;;;;;;;;;;;;;18.88;58.24;101187.16;7263195;19;153458;-57
2022/11/27 06:50:30;;;;;;;;;;;;;;;18.89;58.44;101184.06;7259930;19;154472;-57
2022/11/27 06:52:57;;;;;;;;;;;;;;;18.88;58.40;101185.19;7253504;19;152916;-56
2022/11/27 06:55:24;;;;;;;;;;;;;;;18.87;58.22;101169.50;7260633;19;153666;-57
2022/11/27 06:57:51;;;;;;;;;;;;;;;18.87;58.44;101166.72;7259447;19;153669;-57
2022/11/27 07:00:19;;;;;;;;;;;;;;;18.87;58.31;101152.72;7256190;19;154765;-58
2022/11/27 07:02:46;;;;;;;;;;;;;;;18.87;58.61;101147.13;7258543;19;154120;-58
2022/11/27 07:05:13;;;;;;;;;;;;;;;18.86;58.21;101142.63;7259457;19;153476;-58
2022/11/27 07:07:41;;;;;;;;;;;;;;;18.87;58.48;101146.28;7257628;19;157037;-58
2022/11/27 07:10:09;;;;;;;;;;;;;;;18.87;58.23;101149.06;7261489;19;154073;-58
2022/11/27 07:12:36;;;;;;;;;;;;;;;18.89;58.14;101152.44;7253542;19;154399;-58
2022/11/27 07:15:03;;;;;;;;;;;;;;;18.88;58.30;101150.75;7255148;19;153264;-58
2022/11/27 07:17:31;;;;;;;;;;;;;;;18.86;58.74;101145.44;7255415;19;154540;-58
2022/11/27 07:19:59;;;;;;;;;;;;;;;18.86;58.86;101147.41;7260436;19;153898;-58
2022/11/27 07:22:26;;;;;;;;;;;;;;;18.86;58.58;101147.41;7255464;19;153168;-58
2022/11/27 07:24:54;;;;;;;;;;;;;;;18.86;58.89;101165.03;7258116;19;153173;-58
2022/11/27 07:27:21;;;;;;;;;;;;;;;18.86;58.65;101164.19;7256269;19;156000;-58
2022/11/27 07:29:52;;;;;;;;;;;;;;;18.87;58.44;101157.47;7256357;19;153157;-57
2022/11/27 07:32:19;;;;;;;;;;;;;;;18.86;58.72;101148.25;7263203;19;153370;-57
2022/11/27 07:34:47;;;;;;;;;;;;;;;18.86;58.83;101155.81;7258018;19;154209;-58
2022/11/27 07:37:14;;;;;;;;;;;;;;;18.84;58.94;101156.13;7257631;19;155791;-57
2022/11/27 07:39:45;;;;;;;;;;;;;;;18.83;59.19;101148.84;7255067;19;156635;-58
2022/11/27 07:42:32;;;;;;;;;;;;;;;18.84;58.88;101141.28;7257884;19;153638;-57
2022/11/27 07:45:05;;;;;;;;;;;;;;;18.82;59.05;101146.31;7253862;19;153301;-57
2022/11/27 07:47:32;;;;;;;;;;;;;;;18.83;59.13;101143.25;7255961;19;153440;-58
2022/11/27 07:49:59;;;;;;;;;;;;;;;18.82;59.38;101138.75;7256460;19;153526;-58
2022/11/27 07:52:28;;;;;;;;;;;;;;;18.83;58.87;101146.03;7255168;19;154407;-58
2022/11/27 07:54:55;;;;;;;;;;;;;;;18.81;59.29;101150.25;7261272;19;154031;-58
2022/11/27 07:57:26;;;;;;;;;;;;;;;18.83;59.06;101150.78;7258462;19;153573;-57
2022/11/27 07:59:54;;;;;;;;;;;;;;;18.82;59.04;101149.94;7255791;19;154808;-57
2022/11/27 08:02:21;;;;;;;;;;;;;;;18.82;59.26;101151.91;7258969;19;152888;-57
2022/11/27 08:04:48;;;;;;;;;;;;;;;18.80;59.55;101151.38;7256571;19;153492;-57
2022/11/27 08:07:16;;;;;;;;;;;;;;;18.82;59.18;101157.50;7253467;19;154009;-58
2022/11/27 08:09:43;;;;;;;;;;;;;;;18.81;59.18;101156.69;7255339;19;155329;-57
2022/11/27 08:12:11;;;;;;;;;;;;;;;18.80;59.18;101157.81;7253277;19;154922;-57
2022/11/27 08:14:39;;;;;;;;;;;;;;;18.84;58.63;101152.47;7260754;19;154554;-57
2022/11/27 08:17:11;;;;;;;;;;;;;;;18.85;58.83;101152.16;7254362;19;153190;-57
2022/11/27 08:19:38;;;;;;;;;;;;;;;18.89;59.37;101152.44;7254536;19;154514;-57
2022/11/27 08:22:05;;;;;;;;;;;;;;;18.93;59.47;101151.56;7257383;19;155116;-57
2022/11/27 08:24:32;;;;;;;;;;;;;;;18.97;58.58;101154.59;7256137;19;154492;-57
2022/11/27 08:26:59;;;;;;;;;;;;;;;19.01;59.57;101159.31;7250386;19;154368;-57
2022/11/27 08:29:27;;;;;;;;;;;;;;;19.04;59.31;101160.69;7252562;19;153919;-57
2022/11/27 08:31:59;;;;;;;;;;;;;;;19.06;59.05;101159.28;7257945;19;153650;-58
2022/11/27 08:34:26;;;;;;;;;;;;;;;19.09;58.72;101166.25;7252936;19;152335;-58
2022/11/27 08:36:53;;;;;;;;;;;;;;;19.13;59.38;101158.09;7261657;19;153495;-57
2022/11/27 08:39:21;;;;;;;;;;;;;;;19.14;58.83;101151.38;7254290;19;153040;-58
2022/11/27 08:41:48;;;;;;;;;;;;;;;19.16;58.48;101141.56;7255952;19;152892;-58
2022/11/27 08:44:16;;;;;;;;;;;;;;;19.17;58.70;101129.19;7253264;19;153787;-58
2022/11/27 08:46:46;;;;;;;;;;;;;;;19.18;59.31;101118.84;7255212;19;153901;-58
2022/11/27 08:49:21;;;;;;;;;;;;;;;19.18;59.28;101118.84;7254139;19;154365;-58
2022/11/27 08:51:50;;;;;;;;;;;;;;;19.19;59.47;101117.72;7254970;19;154880;-58
2022/11/27 08:54:26;;;;;;;;;;;;;;;19.18;59.36;101124.44;7253901;19;153389;-57
2022/11/27 08:56:54;;;;;;;;;;;;;;;19.16;58.58;101140.72;7258399;19;153065;-58
2022/11/27 08:59:22;;;;;;;;;;;;;;;19.18;59.38;101155.25;7260614;19;154222;-58
2022/11/27 09:01:56;;;;;;;;;;;;;;;19.17;58.97;101159.19;7256027;19;152165;-58
2022/11/27 09:04:24;;;;;;;;;;;;;;;19.17;58.89;101153.59;7254057;19;152940;-58
2022/11/27 09:06:51;;;;;;;;;;;;;;;19.18;59.22;101172.06;7253626;19;155219;-58
2022/11/27 09:09:23;;;;;;;;;;;;;;;19.18;59.30;101174.84;7253423;19;153963;-58
2022/11/27 09:11:53;;;;;;;;;;;;;;;19.18;59.60;101164.47;7256308;19;153835;-58
2022/11/27 09:14:20;;;;;;;;;;;;;;;19.17;59.20;101171.22;7250655;19;155228;-58
2022/11/27 09:16:48;;;;;;;;;;;;;;;19.17;59.06;101173.19;7253954;19;153759;-58
2022/11/27 09:19:19;;;;;;;;;;;;;;;19.15;59.56;101169.84;7255366;19;153834;-58
2022/11/27 09:21:49;;;;;;;;;;;;;;;19.14;58.68;101166.22;7262085;19;153558;-58
2022/11/27 09:24:22;;;;;;;;;;;;;;;19.13;58.99;101161.72;7251777;19;154496;-58
2022/11/27 09:26:53;;;;;;;;;;;;;;;19.15;59.47;101167.03;7251615;19;153944;-58
2022/11/27 09:29:23;;;;;;;;;;;;;;;19.13;59.20;101158.94;7249849;19;153827;-57
2022/11/27 09:31:53;;;;;;;;;;;;;;;19.12;59.93;101146.06;7253748;19;154904;-58
2022/11/27 09:34:28;;;;;;;;;;;;;;;19.13;59.72;101135.69;7251390;19;153173;-58
2022/11/27 09:37:04;;;;;;;;;;;;;;;19.12;59.44;101134.88;7254972;19;153121;-58
2022/11/27 09:39:47;;;;;;;;;;;;;;;19.12;58.82;101134.03;7253188;19;153182;-57
2022/11/27 09:42:34;;;;;;;;;;;;;;;19.13;58.55;101124.47;7253748;19;154220;-57
2022/11/27 09:45:02;;;;;;;;;;;;;;;19.14;59.08;101131.75;7258031;19;153604;-58
2022/11/27 09:47:37;;;;;;;;;;;;;;;19.12;59.35;101132.06;7257864;19;155147;-58
2022/11/27 09:50:14;;;;;;;;;;;;;;;19.13;58.56;101135.69;7256701;19;152369;-58
2022/11/27 09:52:54;;;;;;;;;;;;;;;19.11;59.08;101136.00;7255897;19;153819;-57
2022/11/27 09:55:24;;;;;;;;;;;;;;;19.13;58.81;101136.53;7256103;19;153029;-57
2022/11/27 09:57:57;;;;;;;;;;;;;;;19.12;58.79;101145.25;7255356;19;153024;-57
2022/11/27 10:00:27;;;;;;;;;;;;;;;19.12;59.11;101136.84;7254053;19;154046;-57
2022/11/27 10:02:57;;;;;;;;;;;;;;;19.15;58.85;101125.03;7251234;19;154797;-57
2022/11/27 10:06:00;;;;;;;;;;;;;;;19.14;59.14;101109.34;7262060;19;153127;-58
2022/11/27 10:08:45;;;;;;;;;;;;;;;19.16;59.39;101107.94;7255313;19;154307;-58
2022/11/27 10:11:15;;;;;;;;;;;;;;;19.13;59.08;101100.13;7249679;19;155216;-58
2022/11/27 10:13:53;;;;;;;;;;;;;;;19.13;59.17;101096.47;7248145;19;152599;-58
2022/11/27 10:16:28;;;;;;;;;;;;;;;19.26;59.17;101110.63;7255678;19;153711;-58
2022/11/27 10:19:03;;;;;;;;;;;;;;;19.28;59.56;101111.16;7259365;19;153506;-58
2022/11/27 10:21:43;;;;;;;;;;;;;;;19.33;59.61;101125.13;7264416;19;155272;-58
2022/11/27 10:24:18;;;;;;;;;;;;;;;19.42;59.25;101130.91;7260196;19;153868;-58
2022/11/27 10:26:47;;;;;;;;;;;;;;;19.48;59.56;101130.63;7258423;19;154284;-58
2022/11/27 10:29:35;;;;;;;;;;;;;;;19.56;59.50;101133.88;7260061;19;153439;-58
2022/11/27 10:32:16;;;;;;;;;;;;;;;19.62;59.36;101133.53;7259386;19;154413;-57
2022/11/27 10:35:10;;;;;;;;;;;;;;;19.67;59.89;101119.44;7258325;19;156199;-58
2022/11/27 10:37:41;;;;;;;;;;;;;;;19.72;60.04;101122.19;7256043;19;153471;-57
2022/11/27 10:40:19;;;;;;;;;;;;;;;19.77;60.09;101122.13;7257566;19;155343;-58
2022/11/27 10:42:52;;;;;;;;;;;;;;;19.83;59.55;101112.53;7258917;19;154818;-58
2022/11/27 10:45:27;;;;;;;;;;;;;;;19.86;59.24;101109.13;7255617;19;154098;-57
2022/11/27 10:47:59;;;;;;;;;;;;;;;19.92;59.17;101095.88;7257933;19;153965;-58
2022/11/27 10:50:27;;;;;;;;;;;;;;;19.95;58.82;101084.88;7258603;19;153692;-58
2022/11/27 10:53:03;;;;;;;;;;;;;;;20.01;58.64;101076.41;7261949;19;152804;-58
2022/11/27 10:55:43;;;;;;;;;;;;;;;20.05;58.28;101066.25;7257670;19;153716;-58
2022/11/27 10:58:27;;;;;;;;;;;;;;;20.10;58.30;101054.94;7255892;19;153073;-58
2022/11/27 11:01:07;;;;;;;;;;;;;;;20.15;58.16;101055.72;7254873;19;152777;-58
2022/11/27 11:03:41;;;;;;;;;;;;;;;20.20;57.91;101052.00;7259207;19;154651;-58
2022/11/27 11:06:20;;;;;;;;;;;;;;;20.24;57.38;101051.09;7257555;19;154083;-58
2022/11/27 11:09:07;;;;;;;;;;;;;;;20.30;57.34;101051.88;7253895;19;153675;-57
2022/11/27 11:11:49;;;;;;;;;;;;;;;20.33;57.26;101043.69;7257433;19;154300;-58
2022/11/27 11:14:19;;;;;;;;;;;;;;;20.39;57.40;101047.25;7252457;19;154647;-57
2022/11/27 11:16:55;;;;;;;;;;;;;;;20.44;56.79;101051.94;7268176;19;153683;-57
2022/11/27 11:19:27;;;;;;;;;;;;;;;20.49;57.08;101040.63;7257953;19;154202;-57
2022/11/27 11:21:55;;;;;;;;;;;;;;;20.53;56.83;101047.31;7258280;19;152865;-57
2022/11/27 11:24:35;;;;;;;;;;;;;;;20.57;56.48;101049.19;7258215;19;154462;-57
2022/11/27 11:27:11;;;;;;;;;;;;;;;20.63;56.29;101041.50;7257770;19;153541;-57
2022/11/27 11:29:51;;;;;;;;;;;;;;;20.65;56.50;101036.41;7255901;19;153996;-57
2022/11/27 11:32:20;;;;;;;;;;;;;;;20.68;55.80;101036.63;7257488;19;153609;-57
2022/11/27 11:34:56;;;;;;;;;;;;;;;20.71;55.90;101033.22;7256700;19;154866;-58
2022/11/27 11:37:29;;;;;;;;;;;;;;;20.74;55.56;101024.19;7257361;19;153517;-57
2022/11/27 11:40:12;;;;;;;;;;;;;;;20.78;55.81;101016.81;7263587;19;153172;-57
2022/11/27 11:42:57;;;;;;;;;;;;;;;20.82;55.73;101019.81;7256951;19;153510;-57
2022/11/27 11:45:27;;;;;;;;;;;;;;;20.84;55.21;101031.59;7255619;19;154466;-58
2022/11/27 11:48:03;;;;;;;;;;;;;;;20.86;55.48;101012.44;7253897;19;155119;-57
2022/11/27 11:50:44;;;;;;;;;;;;;;;20.90;54.88;101016.28;7257741;19;154357;-57
2022/11/27 11:53:17;;;;;;;;;;;;;;;20.93;54.98;101023.28;7256422;19;153214;-57
2022/11/27 11:55:54;;;;;;;;;;;;;;;20.96;55.10;101017.03;7256238;19;154396;-57
2022/11/27 11:58:32;;;;;;;;;;;;;;;20.99;55.08;101024.84;7255881;19;152304;-57
2022/11/27 12:01:14;;;;;;;;;;;;;;;21.01;54.68;101011.34;7253608;19;153935;-57
2022/11/27 12:04:10;;;;;;;;;;;;;;;21.03;54.87;101018.28;7263282;19;154049;-57
2022/11/27 12:07:01;;;;;;;;;;;;;;;21.05;54.73;101009.56;7255009;19;153254;-58
2022/11/27 12:09:35;;;;;;;;;;;;;;;21.07;54.34;101010.09;7254439;19;154742;-57
2022/11/27 12:12:13;;;;;;;;;;;;;;;21.09;54.34;100999.38;7257772;19;153214;-58
2022/11/27 12:14:45;;;;;;;;;;;;;;;21.08;54.26;101001.34;7251149;19;153613;-57
2022/11/27 12:17:22;;;;;;;;;;;;;;;21.08;54.29;100992.91;7253505;19;153261;-58
2022/11/27 12:20:08;;;;;;;;;;;;;;;21.09;54.46;100988.97;7252615;19;152797;-57
2022/11/27 12:22:59;;;;;;;;;;;;;;;21.10;54.37;100984.19;7256853;19;153543;-57
2022/11/27 12:25:33;;;;;;;;;;;;;;;21.11;54.60;100991.47;7263413;19;155517;-56
2022/11/27 12:28:05;;;;;;;;;;;;;;;21.10;54.77;100987.81;7237161;19;154089;-58
2022/11/27 12:30:52;;;;;;;;;;;;;;;21.11;54.98;100980.22;7243639;19;152836;-58
2022/11/27 12:33:31;;;;;;;;;;;;;;;21.13;54.91;100975.16;7253932;19;154280;-58
2022/11/27 12:36:05;;;;;;;;;;;;;;;21.15;54.64;100958.81;7253609;19;153573;-58
2022/11/27 12:38:45;;;;;;;;;;;;;;;21.18;54.50;100952.56;7255032;19;156107;-58
2022/11/27 12:41:35;;;;;;;;;;;;;;;21.21;54.42;100946.34;7253243;19;153678;-58
2022/11/27 12:44:23;;;;;;;;;;;;;;;21.23;54.72;100933.63;7248656;19;153115;-58
2022/11/27 12:47:32;;;;;;;;;;;;;;;21.27;54.62;100939.44;7254730;19;154386;-58